Time;durP1;ratioP1;P1;durP2;ratioP2;P2;SDS_P1;SDS_P2;PMS_P1;PMS_P2;Temp;Humidity;BMP_temperature;BMP_pressure;BME280_temperature;BME280_humidity;BME280_pressure;Samples;Min_cycle;Max_cycle;Signal;HPM_P1;HPM_P2
2023/07/30 00:01:49;;;;;;;31.10;10.13;;;16.30;99.90;;;;;;4897222;29;20418;-90
2023/07/30 00:04:14;;;;;;;28.33;10.07;;;16.00;99.90;;;;;;4896040;29;20413;-92
2023/07/30 00:06:40;;;;;;;28.47;9.30;;;16.00;99.90;;;;;;4896930;29;20441;-91
2023/07/30 00:09:06;;;;;;;32.20;10.85;;;16.20;99.90;;;;;;4911780;29;20496;-90
2023/07/30 00:11:31;;;;;;;31.58;9.88;;;16.40;99.90;;;;;;4896040;29;20504;-90
2023/07/30 00:13:57;;;;;;;25.40;9.37;;;15.80;99.90;;;;;;4896355;29;20416;-92
2023/07/30 00:16:25;;;;;;;27.55;9.25;;;16.20;99.90;;;;;;4896071;29;20415;-92
2023/07/30 00:18:51;;;;;;;33.63;9.45;;;15.90;99.90;;;;;;4896700;29;21011;-91
2023/07/30 00:21:17;;;;;;;31.33;9.67;;;15.90;99.90;;;;;;4895091;29;20413;-92
2023/07/30 00:23:43;;;;;;;30.80;9.43;;;15.90;99.90;;;;;;4896982;29;20504;-90
2023/07/30 00:26:08;;;;;;;30.42;9.15;;;15.90;99.90;;;;;;4910884;29;20820;-90
2023/07/30 00:28:34;;;;;;;33.90;9.67;;;15.90;99.90;;;;;;4911891;29;20429;-91
2023/07/30 00:31:00;;;;;;;32.58;9.65;;;15.90;99.90;;;;;;4895959;29;20476;-92
2023/07/30 00:33:25;;;;;;;34.63;10.03;;;16.50;99.90;;;;;;4895752;29;20429;-91
2023/07/30 00:35:52;;;;;;;31.75;10.10;;;16.90;99.90;;;;;;4896249;29;20531;-90
2023/07/30 00:38:18;;;;;;;31.90;9.77;;;16.20;99.90;;;;;;4895276;29;20885;-91
2023/07/30 00:40:44;;;;;;;35.85;10.15;;;16.40;99.90;;;;;;4912241;29;21004;-91
2023/07/30 00:43:10;;;;;;;35.63;9.93;;;16.10;99.90;;;;;;4895542;29;20417;-91
2023/07/30 00:45:38;;;;;;;35.15;9.85;;;16.20;99.90;;;;;;4896136;29;20881;-93
2023/07/30 00:48:04;;;;;;;33.65;9.70;;;15.90;99.90;;;;;;4895448;29;20421;-90
2023/07/30 00:50:31;;;;;;;31.70;9.23;;;15.90;99.90;;;;;;4911032;29;20421;-90
2023/07/30 00:52:57;;;;;;;36.63;9.65;;;16.00;99.90;;;;;;4895731;29;20417;-91
2023/07/30 00:55:23;;;;;;;32.00;8.90;;;16.30;99.90;;;;;;4894885;29;20422;-90
2023/07/30 00:57:49;;;;;;;31.30;9.70;;;16.00;99.90;;;;;;4896354;29;21072;-90
2023/07/30 01:00:15;;;;;;;35.25;9.57;;;16.00;99.90;;;;;;4910415;29;20954;-90
2023/07/30 01:02:41;;;;;;;34.05;9.18;;;16.10;99.90;;;;;;4911700;29;20943;-91
2023/07/30 01:05:06;;;;;;;37.08;10.07;;;16.10;99.90;;;;;;4894926;29;20413;-90
2023/07/30 01:07:33;;;;;;;29.40;9.10;;;16.10;99.90;;;;;;4894440;29;20445;-92
2023/07/30 01:10:00;;;;;;;39.47;9.87;;;16.20;99.90;;;;;;4911192;29;20512;-92
2023/07/30 01:12:27;;;;;;;30.23;8.82;;;16.20;99.90;;;;;;4895010;29;20424;-90
2023/07/30 01:14:55;;;;;;;30.95;9.27;;;16.20;99.90;;;;;;4895323;29;20405;-89
2023/07/30 01:17:22;;;;;;;35.30;9.38;;;16.30;99.90;;;;;;4894409;29;20421;-91
2023/07/30 01:19:54;;;;;;;30.95;9.30;;;16.40;99.90;;;;;;4895404;29;20452;-90
2023/07/30 01:22:20;;;;;;;31.00;8.00;;;16.50;99.90;;;;;;4895152;29;20445;-89
2023/07/30 01:24:47;;;;;;;29.20;7.72;;;16.80;99.90;;;;;;4910534;29;20971;-89
2023/07/30 01:27:27;;;;;;;33.43;8.00;;;16.40;99.90;;;;;;4894928;29;20463;-91
2023/07/30 01:30:18;;;;;;;34.28;8.98;;;16.60;99.90;;;;;;4894447;29;20453;-90
2023/07/30 01:32:45;;;;;;;31.75;7.78;;;16.60;99.90;;;;;;4889854;29;20421;-90
2023/07/30 01:35:13;;;;;;;31.83;7.93;;;16.60;99.90;;;;;;4894895;29;20784;-90
2023/07/30 01:37:40;;;;;;;26.23;7.65;;;16.70;99.90;;;;;;4894759;29;20421;-91
2023/07/30 01:40:07;;;;;;;29.63;7.70;;;16.70;99.90;;;;;;4910316;29;20416;-89
2023/07/30 01:42:33;;;;;;;34.47;7.88;;;16.80;99.90;;;;;;4894267;29;20409;-89
2023/07/30 01:44:59;;;;;;;28.35;7.45;;;16.80;99.90;;;;;;4893667;29;20428;-91
2023/07/30 01:47:24;;;;;;;28.20;7.73;;;16.90;99.90;;;;;;4875686;29;20439;-91
2023/07/30 01:49:50;;;;;;;27.38;8.25;;;17.00;99.90;;;;;;4877041;29;20466;-90
2023/07/30 01:52:15;;;;;;;30.80;8.10;;;17.20;99.90;;;;;;4875734;29;20422;-92
2023/07/30 01:54:42;;;;;;;29.63;8.10;;;17.00;99.90;;;;;;4876124;29;20438;-91
2023/07/30 01:57:08;;;;;;;32.85;7.88;;;17.10;99.90;;;;;;4894532;29;20414;-90
2023/07/30 01:59:33;;;;;;;28.58;7.90;;;16.90;99.90;;;;;;4878629;29;20980;-92
2023/07/30 02:01:59;;;;;;;29.03;7.57;;;16.90;99.90;;;;;;4879592;29;20418;-90
2023/07/30 02:04:24;;;;;;;29.85;6.90;;;16.90;99.90;;;;;;4878653;29;20441;-91
2023/07/30 02:06:50;;;;;;;31.50;7.50;;;16.90;99.90;;;;;;4879890;29;20512;-92
2023/07/30 02:09:16;;;;;;;31.48;7.47;;;16.80;99.90;;;;;;4878093;29;20409;-90
2023/07/30 02:11:41;;;;;;;29.90;7.40;;;17.00;99.90;;;;;;4879606;29;20508;-90
2023/07/30 02:14:08;;;;;;;28.60;7.50;;;16.80;99.90;;;;;;4878732;29;20421;-90
2023/07/30 02:16:34;;;;;;;31.48;7.63;;;16.70;99.90;;;;;;4879299;29;20469;-90
2023/07/30 02:18:59;;;;;;;28.95;7.35;;;17.00;99.90;;;;;;4883033;29;20916;-91
2023/07/30 02:21:25;;;;;;;31.47;7.53;;;16.70;99.90;;;;;;4882311;29;20421;-91
2023/07/30 02:23:51;;;;;;;31.38;7.32;;;16.70;99.90;;;;;;4898487;29;20420;-91
2023/07/30 02:26:16;;;;;;;34.10;8.30;;;16.50;99.90;;;;;;4881885;29;21266;-92
2023/07/30 02:28:43;;;;;;;30.10;6.95;;;17.00;99.90;;;;;;4883358;29;20424;-92
2023/07/30 02:31:08;;;;;;;27.00;7.35;;;16.60;99.90;;;;;;4882383;29;20500;-90
2023/07/30 02:33:34;;;;;;;29.77;7.67;;;16.60;99.90;;;;;;4883286;29;20509;-90
2023/07/30 02:36:00;;;;;;;26.10;6.80;;;16.90;99.90;;;;;;4888901;29;20426;-92
2023/07/30 02:38:25;;;;;;;28.80;6.87;;;16.50;99.90;;;;;;4901299;29;20427;-91
2023/07/30 02:40:51;;;;;;;32.97;8.07;;;16.80;99.90;;;;;;4901412;29;20779;-90
2023/07/30 02:43:16;;;;;;;31.10;7.10;;;16.60;99.90;;;;;;4900867;29;20450;-90
2023/07/30 02:45:42;;;;;;;26.88;7.63;;;16.50;99.90;;;;;;4901945;29;20415;-91
2023/07/30 02:48:07;;;;;;;27.43;7.53;;;16.50;99.90;;;;;;4900455;29;20420;-91
2023/07/30 02:50:33;;;;;;;28.83;7.47;;;16.90;99.90;;;;;;4902004;29;20416;-90
2023/07/30 02:52:59;;;;;;;26.43;7.83;;;16.60;99.90;;;;;;4900836;29;20827;-91
2023/07/30 02:55:24;;;;;;;26.98;7.25;;;16.50;99.90;;;;;;4916075;29;20430;-91
2023/07/30 02:57:50;;;;;;;30.70;7.80;;;16.60;99.90;;;;;;4901139;29;20419;-90
2023/07/30 03:00:16;;;;;;;28.13;7.57;;;16.30;99.90;;;;;;4916219;29;20415;-91
2023/07/30 03:02:41;;;;;;;25.63;7.40;;;16.30;99.90;;;;;;4916697;29;20499;-91
2023/07/30 03:05:07;;;;;;;31.17;8.40;;;16.70;99.90;;;;;;4900141;29;20434;-89
2023/07/30 03:07:33;;;;;;;30.75;8.07;;;16.20;99.90;;;;;;4901256;29;20439;-90
2023/07/30 03:09:59;;;;;;;26.53;8.07;;;16.20;99.90;;;;;;4899869;29;20430;-91
2023/07/30 03:12:24;;;;;;;28.33;8.32;;;16.20;99.90;;;;;;4900949;29;20790;-91
2023/07/30 03:14:50;;;;;;;26.27;8.93;;;16.60;99.90;;;;;;4900615;29;20770;-90
2023/07/30 03:17:16;;;;;;;28.33;8.15;;;16.10;99.90;;;;;;4900462;29;20415;-91
2023/07/30 03:19:41;;;;;;;30.30;7.73;;;16.10;99.90;;;;;;4916214;29;20431;-90
2023/07/30 03:22:07;;;;;;;23.10;7.40;;;16.10;99.90;;;;;;4915478;29;20510;-89
2023/07/30 03:24:33;;;;;;;31.98;8.60;;;16.10;99.90;;;;;;4900574;29;20446;-92
2023/07/30 03:26:58;;;;;;;24.57;7.20;;;16.10;99.90;;;;;;4915242;29;20562;-90
2023/07/30 03:29:24;;;;;;;26.13;7.30;;;16.30;99.90;;;;;;4900638;29;20415;-92
2023/07/30 03:31:50;;;;;;;27.92;7.63;;;16.00;99.90;;;;;;4899825;29;21000;-89
2023/07/30 03:34:15;;;;;;;29.03;7.67;;;16.10;99.90;;;;;;4900503;29;20495;-89
2023/07/30 03:36:41;;;;;;;24.27;7.22;;;15.90;99.90;;;;;;4900272;29;20412;-92
2023/07/30 03:39:06;;;;;;;27.60;7.27;;;16.20;99.90;;;;;;4900066;29;20429;-91
2023/07/30 03:41:32;;;;;;;28.07;7.50;;;15.90;99.90;;;;;;4916582;29;20639;-90
2023/07/30 03:43:58;;;;;;;26.43;7.50;;;15.90;99.90;;;;;;4899687;29;20412;-91
2023/07/30 03:46:23;;;;;;;22.65;6.40;;;16.10;99.90;;;;;;4900395;29;20569;-90
2023/07/30 03:48:49;;;;;;;26.97;7.13;;;15.90;99.90;;;;;;4899471;29;20447;-90
2023/07/30 03:51:14;;;;;;;30.55;7.07;;;15.90;99.90;;;;;;4900075;29;20419;-90
2023/07/30 03:53:41;;;;;;;25.37;6.00;;;16.20;99.90;;;;;;4915532;29;20431;-91
2023/07/30 03:56:07;;;;;;;27.05;6.35;;;16.00;99.90;;;;;;4899510;29;20484;-91
2023/07/30 03:58:33;;;;;;;25.83;6.65;;;15.80;99.90;;;;;;4900093;29;20447;-89
2023/07/30 04:00:58;;;;;;;26.27;6.50;;;16.10;99.90;;;;;;4899074;29;20420;-92
2023/07/30 04:03:24;;;;;;;23.05;6.68;;;16.00;99.90;;;;;;4900383;29;20416;-91
2023/07/30 04:05:49;;;;;;;26.83;6.20;;;16.30;99.90;;;;;;4898939;29;20450;-90
2023/07/30 04:08:16;;;;;;;22.63;5.90;;;16.10;99.90;;;;;;4900135;29;20915;-91
2023/07/30 04:10:41;;;;;;;21.65;6.72;;;16.20;99.90;;;;;;4899162;29;20415;-90
2023/07/30 04:13:07;;;;;;;25.40;6.87;;;16.00;99.90;;;;;;4899689;29;20423;-90
2023/07/30 04:15:33;;;;;;;24.30;6.53;;;16.00;99.90;;;;;;4899482;29;20980;-89
2023/07/30 04:17:59;;;;;;;27.10;6.32;;;16.10;99.90;;;;;;4898697;29;20422;-90
2023/07/30 04:20:25;;;;;;;24.90;6.53;;;16.10;99.90;;;;;;4899368;29;20779;-91
2023/07/30 04:22:51;;;;;;;23.55;6.07;;;16.10;99.90;;;;;;4898205;29;20411;-91
2023/07/30 04:25:17;;;;;;;23.00;5.45;;;16.40;99.90;;;;;;4915331;29;20411;-91
2023/07/30 04:27:42;;;;;;;23.00;5.65;;;16.20;99.90;;;;;;4898130;29;20490;-90
2023/07/30 04:30:08;;;;;;;22.73;5.10;;;16.50;99.90;;;;;;4899086;29;20771;-91
2023/07/30 04:32:34;;;;;;;21.38;5.18;;;16.30;99.90;;;;;;4915376;29;20423;-91
2023/07/30 04:35:01;;;;;;;17.95;4.43;;;16.80;99.90;;;;;;4899134;29;20419;-92
2023/07/30 04:37:27;;;;;;;20.43;4.50;;;16.50;99.90;;;;;;4899382;29;20408;-91
2023/07/30 04:39:52;;;;;;;20.23;4.38;;;16.40;99.90;;;;;;4898205;29;20414;-90
2023/07/30 04:42:18;;;;;;;14.43;3.93;;;16.50;99.90;;;;;;4899699;29;20514;-91
2023/07/30 04:44:44;;;;;;;21.15;4.30;;;16.60;99.90;;;;;;4898536;29;20956;-90
2023/07/30 04:47:09;;;;;;;17.98;3.53;;;16.50;99.90;;;;;;4899109;29;20439;-91
2023/07/30 04:49:37;;;;;;;18.93;3.70;;;16.60;99.90;;;;;;4898740;29;20582;-91
2023/07/30 04:52:03;;;;;;;12.15;2.88;;;16.60;99.90;;;;;;4898680;29;20503;-91
2023/07/30 04:54:29;;;;;;;13.73;3.10;;;16.60;99.90;;;;;;4911070;29;20428;-90
2023/07/30 04:56:54;;;;;;;13.55;2.67;;;17.00;99.90;;;;;;4879360;29;20417;-91
2023/07/30 04:59:20;;;;;;;12.83;3.00;;;16.80;99.90;;;;;;4880126;29;20405;-91
2023/07/30 05:01:45;;;;;;;10.68;2.55;;;16.60;99.90;;;;;;4879390;29;20471;-91
2023/07/30 05:04:11;;;;;;;15.33;2.50;;;17.00;99.90;;;;;;4880530;29;20433;-91
2023/07/30 05:06:36;;;;;;;11.95;2.08;;;16.70;99.90;;;;;;4879671;29;20444;-91
2023/07/30 05:09:02;;;;;;;14.10;2.30;;;16.60;99.90;;;;;;4880194;29;20516;-90
2023/07/30 05:11:28;;;;;;;13.80;2.42;;;16.70;99.90;;;;;;4879914;29;20427;-90
2023/07/30 05:13:53;;;;;;;12.43;1.90;;;17.20;99.90;;;;;;4894909;29;20488;-89
2023/07/30 05:16:19;;;;;;;13.97;2.30;;;16.80;99.90;;;;;;4880198;29;20429;-92
2023/07/30 05:18:45;;;;;;;11.88;1.63;;;16.90;99.90;;;;;;4879300;29;20512;-92
2023/07/30 05:21:11;;;;;;;12.98;1.85;;;17.40;99.90;;;;;;4880306;29;20461;-92
2023/07/30 05:23:36;;;;;;;9.53;1.63;;;17.50;99.90;;;;;;4879041;29;20462;-93
2023/07/30 05:26:02;;;;;;;9.05;1.35;;;17.10;99.90;;;;;;4879961;29;20452;-92
2023/07/30 05:28:27;;;;;;;11.87;1.70;;;17.60;99.90;;;;;;4894723;29;20456;-90
2023/07/30 05:30:53;;;;;;;10.68;2.00;;;17.30;99.90;;;;;;4879413;29;20418;-91
2023/07/30 05:33:19;;;;;;;11.60;1.20;;;17.20;99.90;;;;;;4883388;29;20516;-91
2023/07/30 05:35:45;;;;;;;9.05;1.27;;;17.30;99.90;;;;;;4902206;29;20979;-92
2023/07/30 05:38:11;;;;;;;9.30;1.30;;;17.80;99.90;;;;;;4895519;29;20416;-92
2023/07/30 05:40:37;;;;;;;9.47;1.27;;;17.50;99.90;;;;;;4879068;29;20499;-91
2023/07/30 05:43:02;;;;;;;9.00;1.15;;;17.70;99.90;;;;;;4880172;29;20445;-92
2023/07/30 05:45:29;;;;;;;9.57;1.30;;;17.70;99.90;;;;;;4878974;29;20430;-91
2023/07/30 05:47:54;;;;;;;7.53;1.25;;;17.50;99.90;;;;;;4895248;29;20517;-91
2023/07/30 05:50:20;;;;;;;9.97;1.30;;;17.90;99.90;;;;;;4879592;29;20433;-91
2023/07/30 05:52:46;;;;;;;7.28;1.20;;;17.90;99.90;;;;;;4882679;29;20417;-94
2023/07/30 05:55:12;;;;;;;8.90;0.90;;;17.50;99.90;;;;;;4885295;29;20429;-92
2023/07/30 05:57:37;;;;;;;10.48;1.27;;;17.70;99.90;;;;;;4885415;29;20421;-91
2023/07/30 06:00:03;;;;;;;7.90;1.47;;;18.20;99.90;;;;;;4902189;29;20896;-93
2023/07/30 06:02:29;;;;;;;6.38;0.88;;;17.80;99.90;;;;;;4884750;29;20473;-91
2023/07/30 06:04:55;;;;;;;8.75;1.42;;;18.00;99.90;;;;;;4886571;29;20557;-93
2023/07/30 06:07:20;;;;;;;8.53;1.07;;;17.80;99.90;;;;;;4884941;29;20441;-91
2023/07/30 06:09:46;;;;;;;9.18;1.50;;;18.30;99.90;;;;;;4903465;29;21013;-92
2023/07/30 06:12:12;;;;;;;8.73;1.38;;;17.80;99.90;;;;;;4895319;29;20417;-90
2023/07/30 06:14:37;;;;;;;9.33;1.30;;;18.20;99.90;;;;;;4909396;29;20422;-91
2023/07/30 06:17:03;;;;;;;8.63;1.17;;;18.20;99.90;;;;;;4892799;29;20521;-91
2023/07/30 06:19:29;;;;;;;8.17;1.40;;;18.30;99.90;;;;;;4909350;29;20427;-92
2023/07/30 06:21:55;;;;;;;9.10;1.70;;;18.20;99.90;;;;;;4894343;29;20927;-93
2023/07/30 06:24:20;;;;;;;8.07;1.37;;;18.30;99.90;;;;;;4893269;29;20419;-93
2023/07/30 06:26:46;;;;;;;8.00;1.33;;;18.30;99.90;;;;;;4910360;29;20439;-91
2023/07/30 06:29:11;;;;;;;9.47;1.63;;;18.00;99.90;;;;;;4892788;29;20397;-92
2023/07/30 06:31:37;;;;;;;8.65;1.48;;;18.10;99.90;;;;;;4896418;29;20437;-91
2023/07/30 06:34:03;;;;;;;8.33;1.40;;;18.40;99.90;;;;;;4886683;29;20758;-91
2023/07/30 06:36:28;;;;;;;9.68;1.70;;;18.40;99.90;;;;;;4900456;29;20453;-92
2023/07/30 06:38:54;;;;;;;10.37;1.57;;;17.90;99.90;;;;;;4901114;29;20432;-92
2023/07/30 06:41:21;;;;;;;9.82;1.60;;;18.30;99.90;;;;;;4884403;29;20417;-92
2023/07/30 06:43:47;;;;;;;10.25;2.00;;;17.90;99.90;;;;;;4900464;29;20460;-93
2023/07/30 06:46:12;;;;;;;9.38;1.35;;;18.60;99.90;;;;;;4903638;29;20537;-92
2023/07/30 06:48:38;;;;;;;9.43;1.80;;;18.50;99.90;;;;;;4904062;29;20518;-92
2023/07/30 06:51:07;;;;;;;10.82;1.58;;;18.50;99.90;;;;;;4904186;29;20422;-90
2023/07/30 06:53:33;;;;;;;9.05;1.40;;;18.90;99.90;;;;;;4903278;29;20490;-93
2023/07/30 06:55:59;;;;;;;10.15;1.48;;;18.40;99.90;;;;;;4903843;29;20447;-91
2023/07/30 06:58:25;;;;;;;10.63;1.40;;;19.10;99.90;;;;;;4903425;29;20493;-92
2023/07/30 07:00:50;;;;;;;9.65;1.58;;;18.90;99.90;;;;;;4903065;29;21215;-90
2023/07/30 07:03:16;;;;;;;9.23;1.40;;;18.90;99.90;;;;;;4900451;29;20498;-92
2023/07/30 07:05:41;;;;;;;10.52;1.48;;;19.10;99.90;;;;;;4915804;29;20483;-93
2023/07/30 07:08:07;;;;;;;9.50;1.40;;;19.20;99.90;;;;;;4898948;29;20429;-92
2023/07/30 07:10:33;;;;;;;10.00;1.60;;;19.80;99.90;;;;;;4919936;29;20501;-93
2023/07/30 07:12:58;;;;;;;9.20;1.15;;;19.60;99.90;;;;;;4919891;29;20410;-92
2023/07/30 07:15:24;;;;;;;9.87;1.80;;;19.60;99.90;;;;;;4919100;29;20417;-92
2023/07/30 07:17:50;;;;;;;9.10;1.60;;;19.70;99.90;;;;;;4920057;29;20477;-92
2023/07/30 07:20:15;;;;;;;8.33;1.47;;;20.30;99.90;;;;;;4918839;29;20461;-91
2023/07/30 07:22:41;;;;;;;9.93;1.38;;;20.20;99.90;;;;;;4906712;29;20416;-93
2023/07/30 07:25:07;;;;;;;9.07;1.20;;;19.90;99.90;;;;;;4915312;29;20431;-90
2023/07/30 07:27:32;;;;;;;10.65;1.42;;;19.60;99.90;;;;;;4900270;29;20435;-92
2023/07/30 07:29:59;;;;;;;8.13;1.37;;;19.70;99.90;;;;;;4901216;29;20551;-92
2023/07/30 07:32:25;;;;;;;11.63;1.33;;;19.40;99.90;;;;;;4915982;29;20422;-91
2023/07/30 07:34:51;;;;;;;6.33;1.00;;;19.60;99.90;;;;;;4900598;29;20515;-91
2023/07/30 07:37:18;;;;;;;6.68;1.23;;;19.40;99.90;;;;;;4899495;29;20411;-93
2023/07/30 07:39:44;;;;;;;9.98;1.45;;;19.40;99.90;;;;;;4916764;29;20427;-91
2023/07/30 07:42:10;;;;;;;8.68;1.27;;;19.50;99.90;;;;;;4899466;29;20946;-90
2023/07/30 07:44:36;;;;;;;11.38;1.80;;;19.20;99.90;;;;;;4901062;29;20479;-92
2023/07/30 07:47:02;;;;;;;8.82;1.30;;;19.10;99.90;;;;;;4899896;29;20446;-92
2023/07/30 07:49:28;;;;;;;10.97;1.00;;;19.10;99.90;;;;;;4900108;29;20407;-92
2023/07/30 07:51:53;;;;;;;10.40;1.17;;;18.90;99.90;;;;;;4900323;29;20437;-93
2023/07/30 07:54:19;;;;;;;11.87;1.67;;;18.90;99.90;;;;;;4914775;29;20474;-93
2023/07/30 07:56:45;;;;;;;8.98;1.20;;;18.80;99.90;;;;;;4900141;29;20479;-92
2023/07/30 07:59:10;;;;;;;11.03;1.90;;;18.90;99.90;;;;;;4899214;29;20426;-92
2023/07/30 08:01:36;;;;;;;9.85;1.42;;;19.10;99.90;;;;;;4900441;29;20907;-91
2023/07/30 08:04:02;;;;;;;8.90;1.40;;;18.90;99.90;;;;;;4915482;29;20466;-93
2023/07/30 08:06:28;;;;;;;10.60;1.60;;;19.10;99.90;;;;;;4899796;29;20899;-92
2023/07/30 08:08:53;;;;;;;11.75;1.48;;;19.20;99.90;;;;;;4903673;29;20420;-92
2023/07/30 08:11:19;;;;;;;12.00;1.43;;;19.20;99.90;;;;;;4880523;29;20428;-92
2023/07/30 08:13:45;;;;;;;11.18;1.38;;;19.50;99.90;;;;;;4897019;29;20409;-92
2023/07/30 08:16:11;;;;;;;9.50;1.00;;;19.70;99.90;;;;;;4879629;29;20457;-91
2023/07/30 08:18:37;;;;;;;9.00;1.30;;;20.00;99.90;;;;;;4881375;29;20413;-91
2023/07/30 08:21:03;;;;;;;8.93;1.33;;;19.90;99.90;;;;;;4895664;29;20418;-93
2023/07/30 08:23:28;;;;;;;9.77;1.30;;;20.10;99.90;;;;;;4881144;29;20818;-93
2023/07/30 08:25:54;;;;;;;8.70;1.30;;;20.10;99.90;;;;;;4885930;29;20495;-92
2023/07/30 08:28:20;;;;;;;11.20;1.38;;;20.50;99.90;;;;;;4899269;29;20434;-92
2023/07/30 08:30:46;;;;;;;7.87;1.10;;;20.50;99.90;;;;;;4915522;29;20420;-92
2023/07/30 08:33:11;;;;;;;9.65;1.13;;;20.40;99.90;;;;;;4914350;29;20416;-91
2023/07/30 08:35:37;;;;;;;10.50;1.50;;;20.40;99.10;;;;;;4899588;29;20430;-91
2023/07/30 08:38:03;;;;;;;8.77;1.25;;;19.90;99.50;;;;;;4898430;29;20495;-92
2023/07/30 08:40:29;;;;;;;7.97;1.30;;;20.10;99.90;;;;;;4915556;29;20400;-92
2023/07/30 08:42:54;;;;;;;12.02;2.17;;;19.90;99.90;;;;;;4898909;29;20408;-91
2023/07/30 08:45:20;;;;;;;8.60;1.25;;;20.00;99.90;;;;;;4914753;29;20426;-91
2023/07/30 08:47:47;;;;;;;8.90;1.40;;;19.60;99.90;;;;;;4898774;29;20523;-90
2023/07/30 08:50:13;;;;;;;8.52;1.02;;;19.30;99.90;;;;;;4899032;29;20426;-91
2023/07/30 08:52:39;;;;;;;7.88;1.60;;;19.10;99.90;;;;;;4899280;29;20502;-91
2023/07/30 08:55:06;;;;;;;7.10;1.00;;;18.70;99.90;;;;;;4898125;29;20447;-92
2023/07/30 08:57:32;;;;;;;7.90;1.27;;;18.30;99.90;;;;;;4899644;29;20506;-91
2023/07/30 09:00:10;;;;;;;6.20;0.85;;;18.20;99.90;;;;;;4897846;29;20418;-92
2023/07/30 09:02:47;;;;;;;6.55;1.10;;;17.90;99.90;;;;;;4899304;29;21005;-92
2023/07/30 09:05:13;;;;;;;7.70;1.10;;;17.80;99.90;;;;;;4899210;29;20873;-92
2023/07/30 09:07:39;;;;;;;6.38;0.95;;;18.00;99.90;;;;;;4898189;29;20560;-92
2023/07/30 09:10:05;;;;;;;7.57;1.00;;;18.30;99.90;;;;;;4899315;29;20415;-91
2023/07/30 09:12:32;;;;;;;9.68;1.38;;;18.20;99.90;;;;;;4898024;29;20419;-92
2023/07/30 09:14:58;;;;;;;7.07;1.25;;;18.40;99.90;;;;;;4899176;29;20974;-92
2023/07/30 09:17:25;;;;;;;7.63;1.08;;;18.70;99.90;;;;;;4898493;29;20481;-90
2023/07/30 09:19:52;;;;;;;8.52;1.30;;;18.90;99.90;;;;;;4898502;29;20416;-92
2023/07/30 09:22:29;;;;;;;7.15;1.20;;;18.80;99.90;;;;;;4898643;29;20502;-92
2023/07/30 09:24:58;;;;;;;6.80;1.30;;;19.00;99.90;;;;;;4913796;29;20474;-91
2023/07/30 09:27:26;;;;;;;9.30;1.05;;;19.20;99.90;;;;;;4898197;29;21140;-90
2023/07/30 09:29:56;;;;;;;7.55;0.93;;;19.20;99.90;;;;;;4897834;29;20687;-92
2023/07/30 09:32:27;;;;;;;9.02;0.90;;;19.20;99.90;;;;;;4898823;29;20486;-92
2023/07/30 09:34:52;;;;;;;7.53;1.10;;;19.20;99.90;;;;;;4913856;29;20456;-91
2023/07/30 09:37:18;;;;;;;7.33;1.07;;;19.40;99.90;;;;;;4898236;29;20447;-91
2023/07/30 09:39:47;;;;;;;8.02;1.08;;;19.50;99.90;;;;;;4898230;29;20411;-90
2023/07/30 09:42:12;;;;;;;8.75;1.13;;;19.70;99.90;;;;;;4897744;29;20423;-92
2023/07/30 09:44:41;;;;;;;7.45;1.20;;;19.80;99.90;;;;;;4914067;29;20423;-91
2023/07/30 09:47:10;;;;;;;7.13;1.17;;;19.80;99.90;;;;;;4897268;29;20439;-92
2023/07/30 09:49:37;;;;;;;9.18;1.55;;;20.00;99.90;;;;;;4898889;29;20471;-92
2023/07/30 09:52:04;;;;;;;7.15;1.38;;;20.10;99.90;;;;;;4913632;29;20415;-89
2023/07/30 09:54:31;;;;;;;8.07;1.35;;;20.20;99.90;;;;;;4898046;29;20447;-92
2023/07/30 09:56:57;;;;;;;7.70;1.48;;;20.30;99.90;;;;;;4913570;29;20519;-90
2023/07/30 09:59:23;;;;;;;7.07;0.80;;;20.40;99.90;;;;;;4897597;29;20939;-91
2023/07/30 10:01:49;;;;;;;6.80;0.90;;;20.40;99.90;;;;;;4913763;29;20478;-92
2023/07/30 10:04:19;;;;;;;6.67;0.70;;;20.30;99.90;;;;;;4913032;29;20454;-89
2023/07/30 10:07:04;;;;;;;9.45;1.10;;;20.30;99.90;;;;;;4898349;29;20443;-91
2023/07/30 10:09:43;;;;;;;9.30;0.80;;;20.40;99.90;;;;;;4897730;29;20412;-90
2023/07/30 10:12:12;;;;;;;8.00;0.90;;;20.40;99.90;;;;;;4897288;29;20424;-91
2023/07/30 10:14:38;;;;;;;9.95;1.05;;;20.80;99.90;;;;;;4898448;29;20439;-92
2023/07/30 10:17:04;;;;;;;10.20;1.20;;;20.80;99.90;;;;;;4896960;29;20439;-91
2023/07/30 10:19:31;;;;;;;8.38;1.60;;;21.10;99.90;;;;;;4897247;29;20442;-88
2023/07/30 10:22:22;;;;;;;8.27;0.90;;;21.20;98.50;;;;;;4912255;29;20424;-89
2023/07/30 10:24:58;;;;;;;5.85;0.70;;;21.60;99.90;;;;;;4895899;29;20984;-88
2023/07/30 10:27:26;;;;;;;6.30;0.90;;;21.80;90.00;;;;;;4911682;29;20447;-88
2023/07/30 10:30:13;;;;;;;7.60;0.82;;;22.10;96.40;;;;;;4895231;29;20416;-87
2023/07/30 10:32:42;;;;;;;7.50;1.20;;;22.50;87.50;;;;;;4912219;29;20431;-88
2023/07/30 10:35:08;;;;;;;9.07;1.07;;;22.70;84.70;;;;;;4895661;29;20508;-87
2023/07/30 10:37:34;;;;;;;6.73;0.90;;;22.50;72.20;;;;;;4895819;29;20419;-88
2023/07/30 10:40:00;;;;;;;8.73;1.00;;;22.40;82.50;;;;;;4899219;29;20427;-88
2023/07/30 10:42:35;;;;;;;9.13;0.97;;;22.90;81.50;;;;;;4898836;29;20415;-86
2023/07/30 10:45:00;;;;;;;7.65;0.80;;;23.00;77.90;;;;;;4900087;29;20419;-88
2023/07/30 10:47:29;;;;;;;7.77;0.90;;;22.90;71.00;;;;;;4915482;29;20885;-88
2023/07/30 10:50:01;;;;;;;7.95;1.17;;;22.30;72.50;;;;;;4916460;29;20424;-92
2023/07/30 10:52:27;;;;;;;7.53;1.20;;;22.60;77.00;;;;;;4915609;29;20486;-91
2023/07/30 10:55:00;;;;;;;8.27;0.80;;;22.40;73.10;;;;;;4900062;29;20463;-90
2023/07/30 10:57:33;;;;;;;4.20;0.77;;;22.70;71.80;;;;;;4916328;29;20423;-90
2023/07/30 10:59:59;;;;;;;7.25;1.25;;;23.10;69.90;;;;;;4913923;29;20495;-91
2023/07/30 11:02:25;;;;;;;7.07;1.15;;;23.30;68.70;;;;;;4900903;29;20412;-91
2023/07/30 11:04:51;;;;;;;7.03;1.00;;;23.40;66.00;;;;;;4915237;29;20410;-89
2023/07/30 11:07:19;;;;;;;9.38;0.90;;;23.60;64.40;;;;;;4931879;29;20530;-89
2023/07/30 11:09:44;;;;;;;7.80;1.00;;;23.10;64.20;;;;;;4899958;29;20745;-90
2023/07/30 11:12:10;;;;;;;7.22;0.93;;;23.40;67.60;;;;;;4910478;29;20469;-91
2023/07/30 11:14:36;;;;;;;9.47;1.40;;;23.00;72.50;;;;;;4893174;29;20919;-92
2023/07/30 11:17:02;;;;;;;5.82;1.10;;;23.40;71.70;;;;;;4899322;29;20415;-90
2023/07/30 11:19:29;;;;;;;9.98;1.05;;;23.20;66.20;;;;;;4916277;29;20879;-89
2023/07/30 11:21:58;;;;;;;8.05;1.02;;;23.50;72.40;;;;;;4898834;29;20418;-89
2023/07/30 11:24:38;;;;;;;6.32;0.90;;;23.70;73.30;;;;;;4916429;29;20760;-90
2023/07/30 11:27:04;;;;;;;7.20;1.08;;;23.80;65.00;;;;;;4898734;29;20530;-90
2023/07/30 11:29:29;;;;;;;6.57;0.87;;;24.00;61.80;;;;;;4899042;29;20498;-90
2023/07/30 11:31:59;;;;;;;8.23;0.82;;;24.10;63.50;;;;;;4915941;29;20424;-90
2023/07/30 11:34:26;;;;;;;5.70;0.60;;;24.10;63.40;;;;;;4915325;29;20420;-91
2023/07/30 11:36:54;;;;;;;7.50;1.10;;;23.90;61.90;;;;;;4916009;29;20510;-91
2023/07/30 11:39:20;;;;;;;5.53;0.70;;;23.80;60.50;;;;;;4898316;29;20423;-91
2023/07/30 11:41:46;;;;;;;5.70;0.50;;;23.30;62.60;;;;;;4899495;29;20427;-91
2023/07/30 11:44:31;;;;;;;5.55;0.60;;;22.80;63.90;;;;;;4914997;29;20835;-90
2023/07/30 11:46:56;;;;;;;6.22;0.82;;;22.40;66.60;;;;;;4898789;29;20440;-90
2023/07/30 11:49:22;;;;;;;6.78;0.90;;;22.10;70.40;;;;;;4899217;29;20819;-89
2023/07/30 11:51:48;;;;;;;5.40;0.60;;;22.50;88.10;;;;;;4914068;29;20468;-91
2023/07/30 11:54:22;;;;;;;5.93;0.57;;;22.70;76.30;;;;;;4915150;29;20419;-90
2023/07/30 11:56:54;;;;;;;6.75;0.60;;;22.90;68.50;;;;;;4894776;29;21015;-90
2023/07/30 11:59:21;;;;;;;5.72;0.50;;;23.10;67.80;;;;;;4912477;29;20428;-91
2023/07/30 12:01:47;;;;;;;5.18;0.70;;;23.20;69.70;;;;;;4896342;29;20424;-92
2023/07/30 12:04:13;;;;;;;8.60;0.87;;;23.90;79.10;;;;;;4895919;29;20414;-91
2023/07/30 12:06:44;;;;;;;7.60;0.80;;;24.20;68.00;;;;;;4896182;29;20584;-91
2023/07/30 12:09:19;;;;;;;6.75;0.70;;;24.10;67.50;;;;;;4895444;29;20452;-90
2023/07/30 12:11:49;;;;;;;6.70;0.63;;;23.60;62.70;;;;;;4895730;29;20505;-91
2023/07/30 12:14:15;;;;;;;5.80;0.95;;;23.30;68.00;;;;;;4911405;29;20424;-89
2023/07/30 12:16:41;;;;;;;5.68;0.75;;;23.40;69.00;;;;;;4895358;29;20472;-90
2023/07/30 12:19:07;;;;;;;5.17;0.47;;;23.50;64.50;;;;;;4912076;29;20875;-89
2023/07/30 12:21:32;;;;;;;4.65;0.40;;;23.50;62.20;;;;;;4895427;29;20424;-89
2023/07/30 12:23:58;;;;;;;4.97;0.77;;;23.80;64.20;;;;;;4895247;29;20528;-89
2023/07/30 12:26:24;;;;;;;5.68;0.50;;;24.10;59.90;;;;;;4894277;29;20788;-92
2023/07/30 12:28:49;;;;;;;5.07;0.40;;;24.30;57.60;;;;;;4895584;29;20408;-91
2023/07/30 12:31:15;;;;;;;5.37;0.60;;;24.50;57.30;;;;;;4895008;29;20425;-90
2023/07/30 12:33:40;;;;;;;4.75;0.65;;;24.80;56.30;;;;;;4896270;29;20480;-92
2023/07/30 12:36:06;;;;;;;5.00;0.50;;;24.50;57.10;;;;;;4894482;29;20488;-89
2023/07/30 12:38:32;;;;;;;4.97;0.73;;;24.40;56.50;;;;;;4894864;29;20418;-92